createdAt,value
2023-01-10T00:01:22.408Z,5.80
2023-01-10T00:05:05.289Z,5.80
2023-01-10T00:08:46.994Z,5.80
2023-01-10T00:12:47.466Z,5.90
2023-01-10T00:16:29.602Z,5.80
2023-01-10T00:20:12.228Z,5.90
2023-01-10T00:23:58.863Z,5.80
2023-01-10T00:27:43.483Z,5.80
2023-01-10T00:31:25.243Z,5.80
2023-01-10T00:35:07.318Z,5.80
2023-01-10T00:38:50.127Z,5.80
2023-01-10T00:42:50.324Z,5.80
2023-01-10T00:46:32.316Z,5.80
2023-01-10T00:50:14.161Z,5.80
2023-01-10T00:53:55.956Z,5.80
2023-01-10T00:57:37.719Z,5.80
2023-01-10T01:01:19.557Z,5.90
2023-01-10T01:05:01.738Z,5.90
2023-01-10T01:08:43.440Z,5.90
2023-01-10T01:12:25.328Z,5.90
2023-01-10T01:16:07.486Z,5.90
2023-01-10T01:19:49.188Z,6.00
2023-01-10T01:23:32.925Z,6.00
2023-01-10T01:27:14.754Z,6.10
2023-01-10T01:30:56.479Z,6.10
2023-01-10T01:34:38.273Z,6.20
2023-01-10T01:38:20.015Z,6.30
2023-01-10T01:42:02.528Z,6.30
2023-01-10T01:45:47.072Z,6.30
2023-01-10T01:49:30.833Z,6.40
2023-01-10T01:53:20.780Z,6.40
2023-01-10T01:57:10.947Z,6.50
2023-01-10T02:00:52.727Z,6.50
2023-01-10T02:04:56.944Z,6.50
2023-01-10T02:08:44.803Z,6.60
2023-01-10T02:12:28.421Z,6.60
2023-01-10T02:16:10.343Z,6.60
2023-01-10T02:20:01.451Z,6.70
2023-01-10T02:24:12.717Z,6.70
2023-01-10T02:28:09.436Z,6.70
2023-01-10T02:32:47.797Z,6.70
2023-01-10T02:36:52.821Z,6.70
2023-01-10T02:40:48.968Z,6.80
2023-01-10T02:44:50.551Z,6.80
2023-01-10T02:48:32.267Z,6.80
2023-01-10T02:52:17.978Z,6.80
2023-01-10T02:56:24.978Z,6.80
2023-01-10T03:00:13.413Z,6.80
2023-01-10T03:04:13.166Z,6.80
2023-01-10T03:08:23.951Z,6.90
2023-01-10T03:12:25.377Z,6.90
2023-01-10T03:16:10.648Z,6.90
2023-01-10T03:19:55.811Z,6.90
2023-01-10T03:23:40.282Z,7.00
2023-01-10T03:27:37.219Z,6.90
2023-01-10T03:31:27.278Z,7.00
2023-01-10T03:35:12.296Z,7.00
2023-01-10T03:38:57.824Z,7.00
2023-01-10T03:43:20.130Z,7.00
2023-01-10T03:47:10.027Z,7.10
2023-01-10T03:50:52.407Z,7.10
2023-01-10T03:54:34.275Z,7.10
2023-01-10T03:58:17.376Z,7.10
2023-01-10T04:01:59.439Z,7.20
2023-01-10T04:05:41.283Z,7.20
2023-01-10T04:09:23.140Z,7.30
2023-01-10T04:13:05.741Z,7.30
2023-01-10T04:16:47.424Z,7.30
2023-01-10T04:20:29.111Z,7.40
2023-01-10T04:24:11.044Z,7.40
2023-01-10T04:27:53.022Z,7.50
2023-01-10T04:31:34.927Z,7.40
2023-01-10T04:35:16.729Z,7.50
2023-01-10T04:38:58.479Z,7.50
2023-01-10T04:42:40.255Z,7.60
2023-01-10T04:46:21.983Z,7.60
2023-01-10T04:50:03.928Z,7.60
2023-01-10T04:53:45.638Z,7.60
2023-01-10T04:57:27.348Z,7.60
2023-01-10T05:01:11.215Z,7.60
2023-01-10T05:04:53.043Z,7.70
2023-01-10T05:08:35.268Z,7.60
2023-01-10T05:12:17.074Z,7.70
2023-01-10T05:15:59.141Z,7.70
2023-01-10T05:19:40.935Z,7.70
2023-01-10T05:23:22.654Z,7.70
2023-01-10T05:27:04.442Z,7.60
2023-01-10T05:30:46.154Z,7.60
2023-01-10T05:34:28.046Z,7.70
2023-01-10T05:38:09.792Z,7.70
2023-01-10T05:41:51.521Z,7.70
2023-01-10T05:45:33.470Z,7.70
2023-01-10T05:49:15.259Z,7.70
2023-01-10T05:53:03.610Z,7.80
2023-01-10T05:56:45.447Z,7.80
2023-01-10T06:00:27.963Z,7.80
2023-01-10T06:04:09.686Z,7.80
2023-01-10T06:07:51.972Z,7.80
2023-01-10T06:11:36.534Z,7.80
2023-01-10T06:15:18.395Z,7.90
2023-01-10T06:19:00.160Z,7.90
2023-01-10T06:22:42.697Z,7.90
2023-01-10T06:26:24.463Z,7.90
2023-01-10T06:30:06.814Z,8.00
2023-01-10T06:33:50.571Z,8.00
2023-01-10T06:37:34.303Z,8.00
2023-01-10T06:41:16.160Z,8.00
2023-01-10T06:44:57.898Z,8.00
2023-01-10T06:48:39.926Z,8.10
2023-01-10T06:52:21.711Z,8.10
2023-01-10T06:56:05.870Z,8.10
2023-01-10T06:59:47.590Z,8.20
2023-01-10T07:03:29.349Z,8.20
2023-01-10T07:07:11.106Z,8.20
2023-01-10T07:10:52.854Z,8.20
2023-01-10T07:14:34.548Z,8.20
2023-01-10T07:18:17.360Z,8.20
2023-01-10T07:21:59.143Z,8.30
2023-01-10T07:25:40.934Z,8.30
2023-01-10T07:29:22.706Z,8.30
2023-01-10T07:33:06.321Z,8.30
2023-01-10T07:36:48.068Z,8.30
2023-01-10T07:40:30.353Z,8.30
2023-01-10T07:44:12.141Z,8.30
2023-01-10T07:48:01.685Z,8.30
2023-01-10T07:51:43.453Z,8.30
2023-01-10T07:55:25.369Z,8.40
2023-01-10T07:59:07.189Z,8.40
2023-01-10T08:02:53.934Z,8.40
2023-01-10T08:06:35.870Z,8.40
2023-01-10T08:10:18.386Z,8.40
2023-01-10T08:14:00.138Z,8.50
2023-01-10T08:17:41.937Z,8.50
2023-01-10T08:21:24.028Z,8.50
2023-01-10T08:25:05.922Z,8.60
2023-01-10T08:28:47.650Z,8.60
2023-01-10T08:32:29.427Z,8.60
2023-01-10T08:36:18.313Z,8.60
2023-01-10T08:40:02.873Z,8.60
2023-01-10T08:43:44.799Z,8.70
2023-01-10T08:47:26.811Z,8.70
2023-01-10T08:51:09.624Z,8.80
2023-01-10T08:54:51.586Z,8.80
2023-01-10T08:58:33.499Z,8.80
2023-01-10T09:02:15.492Z,8.90
2023-01-10T09:05:59.771Z,8.90
2023-01-10T09:09:41.504Z,9.00
2023-01-10T09:13:23.222Z,9.00
2023-01-10T09:17:04.910Z,9.10
2023-01-10T09:20:46.728Z,9.10
2023-01-10T09:24:28.838Z,9.20
2023-01-10T09:28:12.659Z,9.20
2023-01-10T09:31:54.408Z,9.30
2023-01-10T09:35:37.789Z,9.30
2023-01-10T09:39:20.112Z,9.50
2023-01-10T09:43:25.021Z,9.50
2023-01-10T09:47:22.490Z,9.60
2023-01-10T09:51:36.463Z,9.70
2023-01-10T09:55:25.793Z,9.80
2023-01-10T09:59:20.485Z,9.90
2023-01-10T10:03:12.837Z,10.00
2023-01-10T10:06:54.619Z,10.00
2023-01-10T10:10:43.548Z,10.10
2023-01-10T10:14:46.527Z,10.20
2023-01-10T10:18:33.118Z,10.30
2023-01-10T10:22:37.679Z,10.40
2023-01-10T10:26:35.618Z,10.50
2023-01-10T10:30:43.527Z,10.60
2023-01-10T10:34:39.075Z,10.60
2023-01-10T10:38:48.678Z,10.70
2023-01-10T10:42:34.424Z,10.80
2023-01-10T10:46:19.951Z,10.80
2023-01-10T10:50:31.281Z,10.90
2023-01-10T10:54:16.440Z,11.00
2023-01-10T10:58:00.740Z,11.00
2023-01-10T11:01:46.444Z,11.10
2023-01-10T11:05:41.532Z,11.10
2023-01-10T11:09:40.671Z,11.20
2023-01-10T11:13:34.025Z,11.30
2023-01-10T11:17:21.732Z,11.30
2023-01-10T11:21:15.430Z,11.40
2023-01-10T11:25:02.503Z,11.50
2023-01-10T11:28:45.786Z,11.50
2023-01-10T11:32:48.310Z,11.50
2023-01-10T11:36:53.307Z,11.50
2023-01-10T11:40:37.885Z,11.60
2023-01-10T11:44:25.515Z,11.60
2023-01-10T11:48:34.227Z,11.60
2023-01-10T11:52:29.821Z,11.70
2023-01-10T11:56:14.270Z,11.70
2023-01-10T12:00:03.415Z,11.80
2023-01-10T12:03:46.986Z,11.80
2023-01-10T12:07:28.898Z,11.80
2023-01-10T12:11:13.548Z,11.90
2023-01-10T12:14:57.868Z,11.90
2023-01-10T12:18:39.571Z,11.90
2023-01-10T12:22:50.383Z,11.90
2023-01-10T12:26:33.737Z,12.00
2023-01-10T12:30:35.866Z,12.00
2023-01-10T12:34:21.055Z,12.10
2023-01-10T12:38:48.437Z,12.10
2023-01-10T12:43:08.035Z,12.10
2023-01-10T12:47:09.151Z,12.10
2023-01-10T12:50:59.360Z,12.10
2023-01-10T12:54:41.529Z,12.10
2023-01-10T12:58:34.563Z,12.10
2023-01-10T13:02:20.454Z,12.10
2023-01-10T13:06:03.403Z,12.20
2023-01-10T13:09:46.065Z,12.10
2023-01-10T13:13:52.311Z,12.20
2023-01-10T13:17:39.161Z,12.10
2023-01-10T13:21:20.920Z,12.20
2023-01-10T13:25:03.395Z,12.20
2023-01-10T13:29:01.514Z,12.20
2023-01-10T13:32:43.383Z,12.20
2023-01-10T13:36:28.421Z,12.20
2023-01-10T13:40:38.200Z,12.20
2023-01-10T13:44:19.994Z,12.20
2023-01-10T13:48:04.144Z,12.20
2023-01-10T13:52:27.280Z,12.30
2023-01-10T13:56:33.647Z,12.30
2023-01-10T14:00:52.315Z,12.30
2023-01-10T14:04:38.783Z,12.40
2023-01-10T14:08:22.455Z,12.40
2023-01-10T14:12:18.166Z,12.40
2023-01-10T14:16:00.162Z,12.40
2023-01-10T14:19:45.104Z,12.40
2023-01-10T14:23:41.027Z,12.50
2023-01-10T14:27:23.315Z,12.50
2023-01-10T14:31:36.953Z,12.50
2023-01-10T14:35:21.602Z,12.50
2023-01-10T14:39:06.811Z,12.50
2023-01-10T14:42:50.076Z,12.50
2023-01-10T14:46:44.599Z,12.50
2023-01-10T14:50:32.623Z,12.50
2023-01-10T14:54:14.913Z,12.50
2023-01-10T14:58:01.631Z,12.50
2023-01-10T15:01:44.534Z,12.50
2023-01-10T15:05:28.547Z,12.40
2023-01-10T15:09:15.246Z,12.40
2023-01-10T15:13:01.501Z,12.40
2023-01-10T15:16:48.043Z,12.40
2023-01-10T15:20:30.429Z,12.40
2023-01-10T15:24:32.961Z,12.40
2023-01-10T15:28:16.566Z,12.40
2023-01-10T15:32:12.045Z,12.40
2023-01-10T15:36:02.552Z,12.40
2023-01-10T15:39:47.628Z,12.50
2023-01-10T15:43:31.099Z,12.50
2023-01-10T15:47:38.724Z,12.50
2023-01-10T15:51:23.265Z,12.50
2023-01-10T15:55:21.509Z,12.50
2023-01-10T15:59:04.388Z,12.50
2023-01-10T16:02:47.362Z,12.50
2023-01-10T16:06:33.604Z,12.50
2023-01-10T16:10:22.454Z,12.50
2023-01-10T16:14:04.212Z,12.50
2023-01-10T16:17:46.933Z,12.50
2023-01-10T16:21:34.847Z,12.50
2023-01-10T16:25:26.986Z,12.60
2023-01-10T16:29:11.133Z,12.50
2023-01-10T16:32:53.809Z,12.50
2023-01-10T16:36:36.225Z,12.60
2023-01-10T16:40:27.396Z,12.60
2023-01-10T16:44:09.223Z,12.60
2023-01-10T16:47:51.016Z,12.60
2023-01-10T16:51:33.876Z,12.60
2023-01-10T16:55:18.177Z,12.60
2023-01-10T16:58:59.989Z,12.60
2023-01-10T17:02:44.227Z,12.60
2023-01-10T17:06:26.179Z,12.60
2023-01-10T17:10:08.512Z,12.70
2023-01-10T17:13:51.457Z,12.60
2023-01-10T17:17:33.370Z,12.60
2023-01-10T17:21:17.380Z,12.70
2023-01-10T17:24:59.148Z,12.70
2023-01-10T17:28:41.379Z,12.70
2023-01-10T17:32:23.078Z,12.70
2023-01-10T17:36:05.025Z,12.70
2023-01-10T17:39:46.800Z,12.70
2023-01-10T17:43:28.977Z,12.80
2023-01-10T17:47:10.883Z,12.80
2023-01-10T17:50:58.419Z,12.80
2023-01-10T17:54:40.239Z,12.70
2023-01-10T17:58:22.479Z,12.70
2023-01-10T18:02:04.419Z,12.70
2023-01-10T18:05:56.806Z,12.70
2023-01-10T18:09:39.095Z,12.70
2023-01-10T18:13:21.018Z,12.70
2023-01-10T18:17:05.007Z,12.70
2023-01-10T18:20:47.079Z,12.70
2023-01-10T18:24:28.839Z,12.70
2023-01-10T18:28:10.619Z,12.70
2023-01-10T18:31:52.367Z,12.70
2023-01-10T18:35:34.047Z,12.70
2023-01-10T18:39:15.788Z,12.70
2023-01-10T18:42:58.478Z,12.70
2023-01-10T18:46:40.205Z,12.70
2023-01-10T18:50:22.722Z,12.70
2023-01-10T18:54:04.587Z,12.70
2023-01-10T18:57:46.526Z,12.70
2023-01-10T19:01:29.400Z,12.70
2023-01-10T19:05:11.302Z,12.80
2023-01-10T19:08:54.199Z,12.70
2023-01-10T19:12:40.392Z,12.80
2023-01-10T19:16:25.564Z,12.70
2023-01-10T19:20:09.075Z,12.80
2023-01-10T19:23:56.752Z,12.70
2023-01-10T19:27:38.610Z,12.70
2023-01-10T19:31:28.729Z,12.80
2023-01-10T19:35:10.544Z,12.80
2023-01-10T19:38:56.689Z,12.80
2023-01-10T19:42:38.886Z,12.80
2023-01-10T19:46:20.647Z,12.80
2023-01-10T19:50:02.479Z,12.80
2023-01-10T19:53:46.396Z,12.80
2023-01-10T19:57:28.221Z,12.80
2023-01-10T20:01:15.317Z,12.80
2023-01-10T20:04:57.101Z,12.80
2023-01-10T20:08:38.953Z,12.70
2023-01-10T20:12:20.728Z,12.70
2023-01-10T20:16:03.050Z,12.80
2023-01-10T20:19:45.098Z,12.80
2023-01-10T20:23:26.881Z,12.80
2023-01-10T20:27:09.445Z,12.80
2023-01-10T20:30:51.456Z,12.70
2023-01-10T20:34:33.599Z,12.50
2023-01-10T20:38:15.358Z,12.40
2023-01-10T20:41:57.793Z,12.20
2023-01-10T20:45:39.510Z,12.10
2023-01-10T20:49:21.895Z,12.00
2023-01-10T20:53:03.694Z,11.90
2023-01-10T20:56:45.508Z,11.80
2023-01-10T21:00:27.265Z,11.80
2023-01-10T21:04:09.063Z,11.80
2023-01-10T21:07:51.024Z,11.80
2023-01-10T21:11:38.770Z,11.80
2023-01-10T21:15:23.034Z,11.80
2023-01-10T21:19:05.123Z,11.90
2023-01-10T21:22:46.923Z,11.80
2023-01-10T21:26:28.721Z,11.90
2023-01-10T21:30:11.721Z,11.90
2023-01-10T21:33:54.176Z,11.90
2023-01-10T21:37:35.881Z,11.90
2023-01-10T21:41:38.436Z,11.90
2023-01-10T21:45:21.808Z,11.90
2023-01-10T21:49:04.501Z,11.90
2023-01-10T21:52:46.227Z,11.90
2023-01-10T21:56:27.978Z,11.90
2023-01-10T22:00:10.336Z,11.90
2023-01-10T22:03:52.149Z,11.90
2023-01-10T22:07:34.018Z,11.90
2023-01-10T22:11:15.718Z,11.90
2023-01-10T22:14:57.729Z,11.90
2023-01-10T22:18:40.621Z,11.90
2023-01-10T22:22:22.511Z,11.90
2023-01-10T22:26:10.655Z,11.80
2023-01-10T22:29:52.436Z,11.80
2023-01-10T22:33:36.492Z,11.80
2023-01-10T22:37:18.246Z,11.80
2023-01-10T22:41:14.385Z,11.80
2023-01-10T22:44:56.138Z,11.80
2023-01-10T22:48:38.559Z,11.80
2023-01-10T22:52:20.284Z,11.80
2023-01-10T22:56:04.948Z,11.80
2023-01-10T22:59:46.673Z,11.80
2023-01-10T23:03:28.366Z,11.80
2023-01-10T23:07:10.972Z,11.70
2023-01-10T23:10:56.478Z,11.70
2023-01-10T23:14:38.222Z,11.60
2023-01-10T23:18:19.989Z,11.50
2023-01-10T23:22:01.780Z,11.50
2023-01-10T23:25:44.167Z,11.50
2023-01-10T23:29:25.985Z,11.40
2023-01-10T23:33:07.725Z,11.40
2023-01-10T23:36:49.442Z,11.30
2023-01-10T23:40:31.167Z,11.30
2023-01-10T23:44:13.054Z,11.30
2023-01-10T23:47:54.735Z,11.30
2023-01-10T23:51:37.396Z,11.30
2023-01-10T23:55:19.642Z,11.20
2023-01-10T23:59:01.371Z,11.20
